sensor_id;sensor_type;location;lat;lon;timestamp;P1;durP1;ratioP1;P2;durP2;ratioP2
20020;SDS011;10171;42.694;23.318;2023-05-23T00:00:33;13.75;;;9.95;;
20020;SDS011;10171;42.694;23.318;2023-05-23T00:03:01;15.80;;;10.55;;
20020;SDS011;10171;42.694;23.318;2023-05-23T00:05:26;14.50;;;10.20;;
20020;SDS011;10171;42.694;23.318;2023-05-23T00:07:53;15.57;;;10.77;;
20020;SDS011;10171;42.694;23.318;2023-05-23T00:10:18;12.60;;;9.63;;
20020;SDS011;10171;42.694;23.318;2023-05-23T00:12:44;12.07;;;9.25;;
20020;SDS011;10171;42.694;23.318;2023-05-23T00:15:12;13.70;;;9.93;;
20020;SDS011;10171;42.694;23.318;2023-05-23T00:17:37;15.07;;;10.25;;
20020;SDS011;10171;42.694;23.318;2023-05-23T00:20:03;13.75;;;10.02;;
20020;SDS011;10171;42.694;23.318;2023-05-23T00:22:29;14.82;;;9.75;;
20020;SDS011;10171;42.694;23.318;2023-05-23T00:24:54;15.15;;;10.02;;
20020;SDS011;10171;42.694;23.318;2023-05-23T00:27:21;16.38;;;9.68;;
20020;SDS011;10171;42.694;23.318;2023-05-23T00:29:47;14.95;;;9.77;;
20020;SDS011;10171;42.694;23.318;2023-05-23T00:32:12;14.80;;;10.20;;
20020;SDS011;10171;42.694;23.318;2023-05-23T00:34:37;17.15;;;10.52;;
20020;SDS011;10171;42.694;23.318;2023-05-23T00:37:03;15.45;;;10.15;;
20020;SDS011;10171;42.694;23.318;2023-05-23T00:39:29;14.32;;;10.68;;
20020;SDS011;10171;42.694;23.318;2023-05-23T00:41:54;15.55;;;10.43;;
20020;SDS011;10171;42.694;23.318;2023-05-23T00:44:20;16.92;;;10.60;;
20020;SDS011;10171;42.694;23.318;2023-05-23T00:46:46;15.15;;;10.27;;
20020;SDS011;10171;42.694;23.318;2023-05-23T00:49:12;17.05;;;10.75;;
20020;SDS011;10171;42.694;23.318;2023-05-23T00:51:38;13.93;;;10.23;;
20020;SDS011;10171;42.694;23.318;2023-05-23T00:54:06;15.50;;;10.25;;
20020;SDS011;10171;42.694;23.318;2023-05-23T00:56:31;14.75;;;10.63;;
20020;SDS011;10171;42.694;23.318;2023-05-23T00:58:57;14.85;;;10.85;;
20020;SDS011;10171;42.694;23.318;2023-05-23T01:01:24;15.88;;;10.52;;
20020;SDS011;10171;42.694;23.318;2023-05-23T01:03:51;13.43;;;9.93;;
20020;SDS011;10171;42.694;23.318;2023-05-23T01:06:16;17.23;;;10.65;;
20020;SDS011;10171;42.694;23.318;2023-05-23T01:08:41;14.23;;;10.43;;
20020;SDS011;10171;42.694;23.318;2023-05-23T01:11:18;15.35;;;9.63;;
20020;SDS011;10171;42.694;23.318;2023-05-23T01:13:49;18.73;;;10.75;;
20020;SDS011;10171;42.694;23.318;2023-05-23T01:16:25;19.15;;;11.60;;
20020;SDS011;10171;42.694;23.318;2023-05-23T01:21:37;18.85;;;11.65;;
20020;SDS011;10171;42.694;23.318;2023-05-23T01:29:24;18.10;;;12.73;;
20020;SDS011;10171;42.694;23.318;2023-05-23T01:31:51;18.85;;;11.98;;
20020;SDS011;10171;42.694;23.318;2023-05-23T01:34:17;17.63;;;12.20;;
20020;SDS011;10171;42.694;23.318;2023-05-23T01:36:43;16.15;;;11.80;;
20020;SDS011;10171;42.694;23.318;2023-05-23T01:39:09;19.58;;;12.13;;
20020;SDS011;10171;42.694;23.318;2023-05-23T01:41:35;16.08;;;11.85;;
20020;SDS011;10171;42.694;23.318;2023-05-23T01:44:01;18.23;;;11.93;;
20020;SDS011;10171;42.694;23.318;2023-05-23T01:46:27;19.80;;;12.43;;
20020;SDS011;10171;42.694;23.318;2023-05-23T01:48:53;24.38;;;13.40;;
20020;SDS011;10171;42.694;23.318;2023-05-23T01:51:21;22.60;;;14.20;;
20020;SDS011;10171;42.694;23.318;2023-05-23T01:53:47;17.38;;;11.05;;
20020;SDS011;10171;42.694;23.318;2023-05-23T01:56:13;15.25;;;10.85;;
20020;SDS011;10171;42.694;23.318;2023-05-23T01:58:38;15.63;;;11.43;;
20020;SDS011;10171;42.694;23.318;2023-05-23T02:01:04;16.88;;;11.77;;
20020;SDS011;10171;42.694;23.318;2023-05-23T02:03:29;19.70;;;11.80;;
20020;SDS011;10171;42.694;23.318;2023-05-23T02:05:55;17.20;;;12.25;;
20020;SDS011;10171;42.694;23.318;2023-05-23T02:08:20;15.23;;;10.75;;
20020;SDS011;10171;42.694;23.318;2023-05-23T02:10:45;18.20;;;11.98;;
20020;SDS011;10171;42.694;23.318;2023-05-23T02:13:10;18.58;;;12.23;;
20020;SDS011;10171;42.694;23.318;2023-05-23T02:15:36;19.95;;;12.52;;
20020;SDS011;10171;42.694;23.318;2023-05-23T02:18:01;21.70;;;12.48;;
20020;SDS011;10171;42.694;23.318;2023-05-23T02:20:27;18.17;;;11.98;;
20020;SDS011;10171;42.694;23.318;2023-05-23T02:22:52;21.48;;;14.02;;
20020;SDS011;10171;42.694;23.318;2023-05-23T02:25:17;21.65;;;13.68;;
20020;SDS011;10171;42.694;23.318;2023-05-23T02:27:43;21.33;;;13.25;;
20020;SDS011;10171;42.694;23.318;2023-05-23T02:30:08;18.15;;;12.70;;
20020;SDS011;10171;42.694;23.318;2023-05-23T02:32:33;20.90;;;14.18;;
20020;SDS011;10171;42.694;23.318;2023-05-23T02:34:59;26.77;;;15.27;;
20020;SDS011;10171;42.694;23.318;2023-05-23T02:37:24;28.42;;;16.52;;
20020;SDS011;10171;42.694;23.318;2023-05-23T02:39:49;28.83;;;15.98;;
20020;SDS011;10171;42.694;23.318;2023-05-23T02:42:15;27.27;;;16.58;;
20020;SDS011;10171;42.694;23.318;2023-05-23T02:44:40;27.42;;;16.27;;
20020;SDS011;10171;42.694;23.318;2023-05-23T02:47:05;28.00;;;16.77;;
20020;SDS011;10171;42.694;23.318;2023-05-23T02:49:31;28.90;;;16.60;;
20020;SDS011;10171;42.694;23.318;2023-05-23T02:51:56;28.73;;;16.73;;
20020;SDS011;10171;42.694;23.318;2023-05-23T02:54:22;30.52;;;17.10;;
20020;SDS011;10171;42.694;23.318;2023-05-23T02:56:47;31.63;;;17.23;;
20020;SDS011;10171;42.694;23.318;2023-05-23T02:59:14;31.98;;;17.35;;
20020;SDS011;10171;42.694;23.318;2023-05-23T03:01:40;31.10;;;18.27;;
20020;SDS011;10171;42.694;23.318;2023-05-23T03:04:05;32.25;;;17.50;;
20020;SDS011;10171;42.694;23.318;2023-05-23T03:06:31;29.92;;;16.42;;
20020;SDS011;10171;42.694;23.318;2023-05-23T03:08:58;29.60;;;17.92;;
20020;SDS011;10171;42.694;23.318;2023-05-23T03:11:23;31.38;;;17.63;;
20020;SDS011;10171;42.694;23.318;2023-05-23T03:13:48;30.33;;;16.75;;
20020;SDS011;10171;42.694;23.318;2023-05-23T03:16:14;28.02;;;15.95;;
20020;SDS011;10171;42.694;23.318;2023-05-23T03:18:39;26.77;;;16.13;;
20020;SDS011;10171;42.694;23.318;2023-05-23T03:21:06;27.30;;;16.42;;
20020;SDS011;10171;42.694;23.318;2023-05-23T03:23:31;25.85;;;16.00;;
20020;SDS011;10171;42.694;23.318;2023-05-23T03:25:57;30.75;;;16.45;;
20020;SDS011;10171;42.694;23.318;2023-05-23T03:28:23;28.65;;;16.40;;
20020;SDS011;10171;42.694;23.318;2023-05-23T03:30:49;26.63;;;15.95;;
20020;SDS011;10171;42.694;23.318;2023-05-23T03:33:14;24.77;;;15.32;;
20020;SDS011;10171;42.694;23.318;2023-05-23T03:35:40;29.42;;;15.20;;
20020;SDS011;10171;42.694;23.318;2023-05-23T03:38:05;30.65;;;16.38;;
20020;SDS011;10171;42.694;23.318;2023-05-23T03:40:31;28.98;;;16.42;;
20020;SDS011;10171;42.694;23.318;2023-05-23T03:43:03;27.00;;;16.27;;
20020;SDS011;10171;42.694;23.318;2023-05-23T03:45:32;27.23;;;16.10;;
20020;SDS011;10171;42.694;23.318;2023-05-23T03:47:58;28.92;;;16.58;;
20020;SDS011;10171;42.694;23.318;2023-05-23T03:50:24;31.08;;;16.77;;
20020;SDS011;10171;42.694;23.318;2023-05-23T03:52:49;28.23;;;15.93;;
20020;SDS011;10171;42.694;23.318;2023-05-23T03:55:15;32.40;;;17.45;;
20020;SDS011;10171;42.694;23.318;2023-05-23T03:57:40;29.70;;;16.58;;
20020;SDS011;10171;42.694;23.318;2023-05-23T04:00:06;29.20;;;14.88;;
20020;SDS011;10171;42.694;23.318;2023-05-23T04:02:36;32.38;;;17.23;;
20020;SDS011;10171;42.694;23.318;2023-05-23T04:05:01;32.30;;;16.35;;
20020;SDS011;10171;42.694;23.318;2023-05-23T04:07:27;36.28;;;18.33;;
20020;SDS011;10171;42.694;23.318;2023-05-23T04:09:52;35.75;;;17.90;;
20020;SDS011;10171;42.694;23.318;2023-05-23T04:12:17;39.83;;;18.00;;
20020;SDS011;10171;42.694;23.318;2023-05-23T04:14:43;37.58;;;17.92;;
20020;SDS011;10171;42.694;23.318;2023-05-23T04:17:08;38.63;;;16.95;;
20020;SDS011;10171;42.694;23.318;2023-05-23T04:19:34;36.80;;;16.67;;
20020;SDS011;10171;42.694;23.318;2023-05-23T04:21:59;25.90;;;16.15;;
20020;SDS011;10171;42.694;23.318;2023-05-23T04:24:24;28.95;;;15.20;;
20020;SDS011;10171;42.694;23.318;2023-05-23T04:26:50;29.55;;;15.13;;
20020;SDS011;10171;42.694;23.318;2023-05-23T04:29:15;26.85;;;14.75;;
20020;SDS011;10171;42.694;23.318;2023-05-23T04:31:40;25.95;;;14.90;;
20020;SDS011;10171;42.694;23.318;2023-05-23T04:34:06;25.27;;;14.30;;
20020;SDS011;10171;42.694;23.318;2023-05-23T04:36:32;25.60;;;14.57;;
20020;SDS011;10171;42.694;23.318;2023-05-23T04:38:57;29.70;;;13.80;;
20020;SDS011;10171;42.694;23.318;2023-05-23T04:41:22;30.52;;;15.13;;
20020;SDS011;10171;42.694;23.318;2023-05-23T04:43:48;28.38;;;14.90;;
20020;SDS011;10171;42.694;23.318;2023-05-23T04:46:18;24.95;;;14.15;;
20020;SDS011;10171;42.694;23.318;2023-05-23T04:48:50;28.88;;;14.25;;
20020;SDS011;10171;42.694;23.318;2023-05-23T04:51:15;24.40;;;14.35;;
20020;SDS011;10171;42.694;23.318;2023-05-23T04:53:40;24.30;;;13.60;;
20020;SDS011;10171;42.694;23.318;2023-05-23T04:56:06;24.42;;;13.50;;
20020;SDS011;10171;42.694;23.318;2023-05-23T04:58:32;23.75;;;13.32;;
20020;SDS011;10171;42.694;23.318;2023-05-23T05:00:58;21.85;;;13.43;;
20020;SDS011;10171;42.694;23.318;2023-05-23T05:03:23;23.83;;;13.10;;
20020;SDS011;10171;42.694;23.318;2023-05-23T05:05:49;25.27;;;12.65;;
20020;SDS011;10171;42.694;23.318;2023-05-23T05:08:14;29.05;;;13.35;;
20020;SDS011;10171;42.694;23.318;2023-05-23T05:10:39;24.35;;;13.20;;
20020;SDS011;10171;42.694;23.318;2023-05-23T05:13:05;24.58;;;12.63;;
20020;SDS011;10171;42.694;23.318;2023-05-23T05:15:31;20.95;;;12.80;;
20020;SDS011;10171;42.694;23.318;2023-05-23T05:17:56;23.25;;;13.15;;
20020;SDS011;10171;42.694;23.318;2023-05-23T05:20:21;23.05;;;13.07;;
20020;SDS011;10171;42.694;23.318;2023-05-23T05:22:53;22.98;;;13.77;;
20020;SDS011;10171;42.694;23.318;2023-05-23T05:25:19;24.98;;;13.38;;
20020;SDS011;10171;42.694;23.318;2023-05-23T05:27:45;20.58;;;12.68;;
20020;SDS011;10171;42.694;23.318;2023-05-23T05:30:10;22.45;;;12.98;;
20020;SDS011;10171;42.694;23.318;2023-05-23T05:32:36;27.05;;;13.18;;
20020;SDS011;10171;42.694;23.318;2023-05-23T05:35:01;23.02;;;12.60;;
20020;SDS011;10171;42.694;23.318;2023-05-23T05:37:27;22.95;;;13.45;;
20020;SDS011;10171;42.694;23.318;2023-05-23T05:39:53;26.52;;;14.85;;
20020;SDS011;10171;42.694;23.318;2023-05-23T05:42:18;27.05;;;14.02;;
20020;SDS011;10171;42.694;23.318;2023-05-23T05:44:45;23.85;;;13.90;;
20020;SDS011;10171;42.694;23.318;2023-05-23T05:47:10;26.23;;;14.30;;
20020;SDS011;10171;42.694;23.318;2023-05-23T05:49:37;24.48;;;14.55;;
20020;SDS011;10171;42.694;23.318;2023-05-23T05:52:02;24.88;;;14.60;;
20020;SDS011;10171;42.694;23.318;2023-05-23T05:54:27;24.63;;;15.02;;
20020;SDS011;10171;42.694;23.318;2023-05-23T05:56:53;25.23;;;14.32;;
20020;SDS011;10171;42.694;23.318;2023-05-23T05:59:18;24.08;;;13.90;;
20020;SDS011;10171;42.694;23.318;2023-05-23T06:01:44;26.00;;;15.10;;
20020;SDS011;10171;42.694;23.318;2023-05-23T06:04:10;19.90;;;13.95;;
20020;SDS011;10171;42.694;23.318;2023-05-23T06:06:35;24.48;;;14.35;;
20020;SDS011;10171;42.694;23.318;2023-05-23T06:09:01;25.77;;;14.98;;
20020;SDS011;10171;42.694;23.318;2023-05-23T06:11:26;26.83;;;15.40;;
20020;SDS011;10171;42.694;23.318;2023-05-23T06:13:51;26.33;;;14.85;;
20020;SDS011;10171;42.694;23.318;2023-05-23T06:16:17;30.33;;;15.98;;
20020;SDS011;10171;42.694;23.318;2023-05-23T06:18:42;24.77;;;15.50;;
20020;SDS011;10171;42.694;23.318;2023-05-23T06:21:08;27.80;;;16.25;;
20020;SDS011;10171;42.694;23.318;2023-05-23T06:23:33;28.08;;;16.05;;
20020;SDS011;10171;42.694;23.318;2023-05-23T06:25:59;29.67;;;16.88;;
20020;SDS011;10171;42.694;23.318;2023-05-23T06:28:24;30.75;;;17.58;;
20020;SDS011;10171;42.694;23.318;2023-05-23T06:30:49;28.63;;;16.92;;
20020;SDS011;10171;42.694;23.318;2023-05-23T06:33:15;29.98;;;17.85;;
20020;SDS011;10171;42.694;23.318;2023-05-23T06:35:41;25.25;;;16.58;;
20020;SDS011;10171;42.694;23.318;2023-05-23T06:38:06;28.40;;;16.90;;
20020;SDS011;10171;42.694;23.318;2023-05-23T06:40:32;33.05;;;17.60;;
20020;SDS011;10171;42.694;23.318;2023-05-23T06:42:57;26.58;;;16.33;;
20020;SDS011;10171;42.694;23.318;2023-05-23T06:45:23;26.25;;;16.88;;
20020;SDS011;10171;42.694;23.318;2023-05-23T06:47:49;30.88;;;17.35;;
20020;SDS011;10171;42.694;23.318;2023-05-23T06:50:15;33.53;;;18.52;;
20020;SDS011;10171;42.694;23.318;2023-05-23T06:52:43;33.60;;;18.80;;
20020;SDS011;10171;42.694;23.318;2023-05-23T06:55:10;32.03;;;18.33;;
20020;SDS011;10171;42.694;23.318;2023-05-23T06:57:38;36.85;;;19.08;;
20020;SDS011;10171;42.694;23.318;2023-05-23T07:00:04;35.97;;;20.23;;
20020;SDS011;10171;42.694;23.318;2023-05-23T07:02:30;40.30;;;20.90;;
20020;SDS011;10171;42.694;23.318;2023-05-23T07:04:55;42.13;;;21.65;;
20020;SDS011;10171;42.694;23.318;2023-05-23T07:07:20;42.08;;;22.83;;
20020;SDS011;10171;42.694;23.318;2023-05-23T07:09:45;39.10;;;20.80;;
20020;SDS011;10171;42.694;23.318;2023-05-23T07:12:11;47.45;;;23.20;;
20020;SDS011;10171;42.694;23.318;2023-05-23T07:14:36;39.25;;;21.55;;
20020;SDS011;10171;42.694;23.318;2023-05-23T07:17:02;40.58;;;22.30;;
20020;SDS011;10171;42.694;23.318;2023-05-23T07:19:27;38.95;;;21.23;;
20020;SDS011;10171;42.694;23.318;2023-05-23T07:21:53;44.45;;;23.05;;
20020;SDS011;10171;42.694;23.318;2023-05-23T07:24:18;49.00;;;22.40;;
20020;SDS011;10171;42.694;23.318;2023-05-23T07:26:43;44.47;;;22.67;;
20020;SDS011;10171;42.694;23.318;2023-05-23T07:29:09;37.50;;;20.08;;
20020;SDS011;10171;42.694;23.318;2023-05-23T07:31:35;40.35;;;20.48;;
20020;SDS011;10171;42.694;23.318;2023-05-23T07:34:00;38.42;;;20.13;;
20020;SDS011;10171;42.694;23.318;2023-05-23T07:36:25;40.92;;;20.60;;
20020;SDS011;10171;42.694;23.318;2023-05-23T07:38:51;43.83;;;23.08;;
20020;SDS011;10171;42.694;23.318;2023-05-23T07:41:17;48.00;;;23.33;;
20020;SDS011;10171;42.694;23.318;2023-05-23T07:43:42;47.90;;;24.85;;
20020;SDS011;10171;42.694;23.318;2023-05-23T07:46:08;51.22;;;24.58;;
20020;SDS011;10171;42.694;23.318;2023-05-23T07:48:33;48.38;;;25.35;;
20020;SDS011;10171;42.694;23.318;2023-05-23T07:50:59;47.38;;;24.60;;
20020;SDS011;10171;42.694;23.318;2023-05-23T07:53:25;49.97;;;26.08;;
20020;SDS011;10171;42.694;23.318;2023-05-23T07:55:50;52.03;;;26.25;;
20020;SDS011;10171;42.694;23.318;2023-05-23T07:58:16;47.78;;;25.88;;
20020;SDS011;10171;42.694;23.318;2023-05-23T08:00:41;49.83;;;25.67;;
20020;SDS011;10171;42.694;23.318;2023-05-23T08:03:08;46.08;;;24.33;;
20020;SDS011;10171;42.694;23.318;2023-05-23T08:05:33;49.03;;;23.85;;
20020;SDS011;10171;42.694;23.318;2023-05-23T08:07:59;41.58;;;23.48;;
20020;SDS011;10171;42.694;23.318;2023-05-23T08:10:24;43.45;;;21.33;;
20020;SDS011;10171;42.694;23.318;2023-05-23T08:12:52;40.15;;;21.48;;
20020;SDS011;10171;42.694;23.318;2023-05-23T08:15:17;37.72;;;20.73;;
20020;SDS011;10171;42.694;23.318;2023-05-23T08:17:43;39.13;;;20.73;;
20020;SDS011;10171;42.694;23.318;2023-05-23T08:20:08;38.85;;;21.77;;
20020;SDS011;10171;42.694;23.318;2023-05-23T08:22:35;38.97;;;21.58;;
20020;SDS011;10171;42.694;23.318;2023-05-23T08:25:01;37.53;;;21.00;;
20020;SDS011;10171;42.694;23.318;2023-05-23T08:27:27;42.63;;;21.80;;
20020;SDS011;10171;42.694;23.318;2023-05-23T08:29:54;71.60;;;32.70;;
20020;SDS011;10171;42.694;23.318;2023-05-23T08:32:19;77.28;;;34.63;;
20020;SDS011;10171;42.694;23.318;2023-05-23T08:34:45;56.92;;;28.85;;
20020;SDS011;10171;42.694;23.318;2023-05-23T08:37:10;37.83;;;22.02;;
20020;SDS011;10171;42.694;23.318;2023-05-23T08:39:35;36.20;;;21.60;;
20020;SDS011;10171;42.694;23.318;2023-05-23T08:42:01;39.25;;;21.00;;
20020;SDS011;10171;42.694;23.318;2023-05-23T08:44:26;76.47;;;41.65;;
20020;SDS011;10171;42.694;23.318;2023-05-23T08:46:52;35.20;;;20.05;;
20020;SDS011;10171;42.694;23.318;2023-05-23T08:49:17;33.95;;;19.30;;
20020;SDS011;10171;42.694;23.318;2023-05-23T08:51:42;38.03;;;17.73;;
20020;SDS011;10171;42.694;23.318;2023-05-23T08:54:08;27.27;;;17.08;;
20020;SDS011;10171;42.694;23.318;2023-05-23T08:56:35;28.98;;;17.52;;
20020;SDS011;10171;42.694;23.318;2023-05-23T08:59:01;27.60;;;15.27;;
20020;SDS011;10171;42.694;23.318;2023-05-23T09:01:28;25.08;;;14.57;;
20020;SDS011;10171;42.694;23.318;2023-05-23T09:03:54;19.85;;;13.10;;
20020;SDS011;10171;42.694;23.318;2023-05-23T09:06:24;22.58;;;12.98;;
20020;SDS011;10171;42.694;23.318;2023-05-23T09:08:49;20.92;;;13.32;;
20020;SDS011;10171;42.694;23.318;2023-05-23T09:11:15;17.75;;;11.30;;
20020;SDS011;10171;42.694;23.318;2023-05-23T09:13:40;18.58;;;11.80;;
20020;SDS011;10171;42.694;23.318;2023-05-23T09:16:09;8.38;;;7.15;;
20020;SDS011;10171;42.694;23.318;2023-05-23T09:18:38;12.65;;;8.05;;
20020;SDS011;10171;42.694;23.318;2023-05-23T09:21:07;9.68;;;7.10;;
20020;SDS011;10171;42.694;23.318;2023-05-23T09:23:33;8.75;;;6.55;;
20020;SDS011;10171;42.694;23.318;2023-05-23T09:26:07;12.68;;;6.63;;
20020;SDS011;10171;42.694;23.318;2023-05-23T09:28:34;8.93;;;6.55;;
20020;SDS011;10171;42.694;23.318;2023-05-23T09:31:01;10.13;;;6.57;;
20020;SDS011;10171;42.694;23.318;2023-05-23T09:36:03;12.40;;;7.07;;
20020;SDS011;10171;42.694;23.318;2023-05-23T09:38:30;14.45;;;6.53;;
20020;SDS011;10171;42.694;23.318;2023-05-23T09:40:56;8.98;;;5.38;;
20020;SDS011;10171;42.694;23.318;2023-05-23T09:43:23;15.35;;;8.45;;
20020;SDS011;10171;42.694;23.318;2023-05-23T09:45:48;11.55;;;5.55;;
20020;SDS011;10171;42.694;23.318;2023-05-23T09:48:13;8.98;;;5.72;;
20020;SDS011;10171;42.694;23.318;2023-05-23T09:50:39;9.30;;;5.47;;
20020;SDS011;10171;42.694;23.318;2023-05-23T09:53:04;11.13;;;6.60;;
20020;SDS011;10171;42.694;23.318;2023-05-23T09:55:29;8.93;;;6.00;;
20020;SDS011;10171;42.694;23.318;2023-05-23T09:57:55;8.27;;;5.97;;
20020;SDS011;10171;42.694;23.318;2023-05-23T10:00:22;7.30;;;4.75;;
20020;SDS011;10171;42.694;23.318;2023-05-23T10:05:30;8.25;;;5.47;;
20020;SDS011;10171;42.694;23.318;2023-05-23T10:07:58;11.63;;;7.63;;
20020;SDS011;10171;42.694;23.318;2023-05-23T10:10:27;8.32;;;5.53;;
20020;SDS011;10171;42.694;23.318;2023-05-23T10:12:54;112.28;;;62.63;;
20020;SDS011;10171;42.694;23.318;2023-05-23T10:15:20;21.52;;;14.30;;
20020;SDS011;10171;42.694;23.318;2023-05-23T10:20:17;14.48;;;7.88;;
20020;SDS011;10171;42.694;23.318;2023-05-23T10:22:48;9.30;;;6.63;;
20020;SDS011;10171;42.694;23.318;2023-05-23T10:25:15;9.77;;;5.13;;
20020;SDS011;10171;42.694;23.318;2023-05-23T10:27:40;5.80;;;4.45;;
20020;SDS011;10171;42.694;23.318;2023-05-23T10:30:06;7.40;;;4.25;;
20020;SDS011;10171;42.694;23.318;2023-05-23T10:32:33;12.82;;;5.07;;
20020;SDS011;10171;42.694;23.318;2023-05-23T10:40:52;9.80;;;4.20;;
20020;SDS011;10171;42.694;23.318;2023-05-23T10:45:53;4.75;;;4.28;;
20020;SDS011;10171;42.694;23.318;2023-05-23T10:48:22;9.10;;;5.50;;
20020;SDS011;10171;42.694;23.318;2023-05-23T10:51:04;9.07;;;5.03;;
20020;SDS011;10171;42.694;23.318;2023-05-23T10:53:30;6.55;;;4.18;;
20020;SDS011;10171;42.694;23.318;2023-05-23T10:55:55;7.82;;;5.03;;
20020;SDS011;10171;42.694;23.318;2023-05-23T10:58:21;9.38;;;7.40;;
20020;SDS011;10171;42.694;23.318;2023-05-23T11:00:53;20.58;;;13.68;;
20020;SDS011;10171;42.694;23.318;2023-05-23T11:09:05;8.27;;;6.72;;
20020;SDS011;10171;42.694;23.318;2023-05-23T11:14:18;6.15;;;4.55;;
20020;SDS011;10171;42.694;23.318;2023-05-23T11:16:43;8.07;;;4.55;;
20020;SDS011;10171;42.694;23.318;2023-05-23T11:21:45;4.88;;;4.22;;
20020;SDS011;10171;42.694;23.318;2023-05-23T11:24:10;4.13;;;3.55;;
20020;SDS011;10171;42.694;23.318;2023-05-23T11:26:36;4.95;;;3.65;;
20020;SDS011;10171;42.694;23.318;2023-05-23T11:29:01;5.72;;;3.92;;
20020;SDS011;10171;42.694;23.318;2023-05-23T11:31:29;6.50;;;4.60;;
20020;SDS011;10171;42.694;23.318;2023-05-23T11:33:54;7.15;;;4.30;;
20020;SDS011;10171;42.694;23.318;2023-05-23T11:36:20;5.13;;;3.80;;
20020;SDS011;10171;42.694;23.318;2023-05-23T11:38:46;5.95;;;3.80;;
20020;SDS011;10171;42.694;23.318;2023-05-23T11:41:11;4.45;;;3.85;;
20020;SDS011;10171;42.694;23.318;2023-05-23T11:43:37;4.85;;;3.90;;
20020;SDS011;10171;42.694;23.318;2023-05-23T11:46:13;4.50;;;3.45;;
20020;SDS011;10171;42.694;23.318;2023-05-23T11:48:38;5.78;;;3.65;;
20020;SDS011;10171;42.694;23.318;2023-05-23T11:51:08;5.13;;;3.33;;
20020;SDS011;10171;42.694;23.318;2023-05-23T11:53:34;8.85;;;4.45;;
20020;SDS011;10171;42.694;23.318;2023-05-23T11:56:00;5.00;;;3.60;;
20020;SDS011;10171;42.694;23.318;2023-05-23T11:58:30;6.50;;;4.07;;
20020;SDS011;10171;42.694;23.318;2023-05-23T12:01:01;7.15;;;5.18;;
20020;SDS011;10171;42.694;23.318;2023-05-23T12:03:43;6.63;;;4.40;;
20020;SDS011;10171;42.694;23.318;2023-05-23T12:06:19;5.75;;;4.57;;
20020;SDS011;10171;42.694;23.318;2023-05-23T12:08:48;5.40;;;4.53;;
20020;SDS011;10171;42.694;23.318;2023-05-23T12:11:19;9.23;;;6.85;;
20020;SDS011;10171;42.694;23.318;2023-05-23T12:13:44;9.57;;;6.10;;
20020;SDS011;10171;42.694;23.318;2023-05-23T12:16:12;5.07;;;4.00;;
20020;SDS011;10171;42.694;23.318;2023-05-23T12:18:41;7.50;;;3.63;;
20020;SDS011;10171;42.694;23.318;2023-05-23T12:21:06;10.10;;;3.67;;
20020;SDS011;10171;42.694;23.318;2023-05-23T12:23:33;5.10;;;3.85;;
20020;SDS011;10171;42.694;23.318;2023-05-23T12:26:00;7.35;;;5.35;;
20020;SDS011;10171;42.694;23.318;2023-05-23T12:28:38;10.65;;;5.70;;
20020;SDS011;10171;42.694;23.318;2023-05-23T12:31:08;6.57;;;3.97;;
20020;SDS011;10171;42.694;23.318;2023-05-23T12:33:38;10.15;;;4.68;;
20020;SDS011;10171;42.694;23.318;2023-05-23T12:36:04;7.65;;;4.75;;
20020;SDS011;10171;42.694;23.318;2023-05-23T12:38:31;12.63;;;6.22;;
20020;SDS011;10171;42.694;23.318;2023-05-23T12:41:11;9.23;;;5.00;;
20020;SDS011;10171;42.694;23.318;2023-05-23T12:43:40;10.52;;;5.10;;
20020;SDS011;10171;42.694;23.318;2023-05-23T12:46:14;7.07;;;4.30;;
20020;SDS011;10171;42.694;23.318;2023-05-23T12:48:39;4.43;;;4.03;;
20020;SDS011;10171;42.694;23.318;2023-05-23T12:51:05;5.53;;;3.50;;
20020;SDS011;10171;42.694;23.318;2023-05-23T12:53:30;5.25;;;3.15;;
20020;SDS011;10171;42.694;23.318;2023-05-23T12:55:55;4.97;;;3.78;;
20020;SDS011;10171;42.694;23.318;2023-05-23T12:58:21;4.43;;;3.22;;
20020;SDS011;10171;42.694;23.318;2023-05-23T13:00:46;5.28;;;3.88;;
20020;SDS011;10171;42.694;23.318;2023-05-23T13:03:11;3.95;;;3.28;;
20020;SDS011;10171;42.694;23.318;2023-05-23T13:05:37;6.90;;;3.30;;
20020;SDS011;10171;42.694;23.318;2023-05-23T13:08:02;5.72;;;3.58;;
20020;SDS011;10171;42.694;23.318;2023-05-23T13:10:28;5.45;;;3.72;;
20020;SDS011;10171;42.694;23.318;2023-05-23T13:12:53;4.38;;;3.58;;
20020;SDS011;10171;42.694;23.318;2023-05-23T13:15:18;5.53;;;3.33;;
20020;SDS011;10171;42.694;23.318;2023-05-23T13:17:44;5.57;;;3.58;;
20020;SDS011;10171;42.694;23.318;2023-05-23T13:20:10;3.63;;;3.13;;
20020;SDS011;10171;42.694;23.318;2023-05-23T13:22:37;7.57;;;3.50;;
20020;SDS011;10171;42.694;23.318;2023-05-23T13:25:03;4.65;;;3.33;;
20020;SDS011;10171;42.694;23.318;2023-05-23T13:27:28;6.30;;;3.30;;
20020;SDS011;10171;42.694;23.318;2023-05-23T13:29:54;4.68;;;3.25;;
20020;SDS011;10171;42.694;23.318;2023-05-23T13:32:19;5.10;;;3.65;;
20020;SDS011;10171;42.694;23.318;2023-05-23T13:34:45;4.82;;;3.42;;
20020;SDS011;10171;42.694;23.318;2023-05-23T13:37:10;5.30;;;3.45;;
20020;SDS011;10171;42.694;23.318;2023-05-23T13:39:36;5.50;;;4.20;;
20020;SDS011;10171;42.694;23.318;2023-05-23T13:42:01;9.50;;;6.70;;
20020;SDS011;10171;42.694;23.318;2023-05-23T13:44:27;7.25;;;5.72;;
20020;SDS011;10171;42.694;23.318;2023-05-23T13:46:53;5.07;;;3.45;;
20020;SDS011;10171;42.694;23.318;2023-05-23T13:49:19;9.13;;;4.13;;
20020;SDS011;10171;42.694;23.318;2023-05-23T13:51:44;7.03;;;3.55;;
20020;SDS011;10171;42.694;23.318;2023-05-23T13:54:09;3.75;;;2.95;;
20020;SDS011;10171;42.694;23.318;2023-05-23T13:56:35;4.35;;;3.25;;
20020;SDS011;10171;42.694;23.318;2023-05-23T13:59:03;4.75;;;3.25;;
20020;SDS011;10171;42.694;23.318;2023-05-23T14:01:29;5.63;;;3.00;;
20020;SDS011;10171;42.694;23.318;2023-05-23T14:03:54;4.53;;;3.20;;
20020;SDS011;10171;42.694;23.318;2023-05-23T14:06:20;4.97;;;3.72;;
20020;SDS011;10171;42.694;23.318;2023-05-23T14:08:45;5.68;;;3.65;;
20020;SDS011;10171;42.694;23.318;2023-05-23T14:11:11;6.25;;;3.80;;
20020;SDS011;10171;42.694;23.318;2023-05-23T14:13:36;5.90;;;3.60;;
20020;SDS011;10171;42.694;23.318;2023-05-23T14:16:01;3.75;;;3.40;;
20020;SDS011;10171;42.694;23.318;2023-05-23T14:18:27;5.68;;;4.07;;
20020;SDS011;10171;42.694;23.318;2023-05-23T14:20:52;5.57;;;2.92;;
20020;SDS011;10171;42.694;23.318;2023-05-23T14:23:18;8.13;;;4.55;;
20020;SDS011;10171;42.694;23.318;2023-05-23T14:25:43;7.22;;;4.10;;
20020;SDS011;10171;42.694;23.318;2023-05-23T14:28:09;4.53;;;4.10;;
20020;SDS011;10171;42.694;23.318;2023-05-23T14:30:35;8.77;;;5.35;;
20020;SDS011;10171;42.694;23.318;2023-05-23T14:33:00;7.78;;;5.35;;
20020;SDS011;10171;42.694;23.318;2023-05-23T14:35:25;6.88;;;4.40;;
20020;SDS011;10171;42.694;23.318;2023-05-23T14:37:51;8.13;;;4.57;;
20020;SDS011;10171;42.694;23.318;2023-05-23T14:40:16;10.68;;;5.82;;
20020;SDS011;10171;42.694;23.318;2023-05-23T14:42:41;7.13;;;4.53;;
20020;SDS011;10171;42.694;23.318;2023-05-23T14:45:07;6.47;;;4.13;;
20020;SDS011;10171;42.694;23.318;2023-05-23T14:47:33;4.50;;;3.28;;